sensor_id;sensor_type;location;lat;lon;timestamp;temperature;humidity
36372;DHT22;22398;51.346;12.372;2023-04-09T00:01:28;3.20;99.90
36372;DHT22;22398;51.346;12.372;2023-04-09T00:06:33;3.20;99.90
36372;DHT22;22398;51.346;12.372;2023-04-09T00:11:36;3.20;99.90
36372;DHT22;22398;51.346;12.372;2023-04-09T00:16:39;3.10;99.90
36372;DHT22;22398;51.346;12.372;2023-04-09T00:21:45;3.10;99.90
36372;DHT22;22398;51.346;12.372;2023-04-09T00:26:49;3.10;99.90
36372;DHT22;22398;51.346;12.372;2023-04-09T00:31:54;3.00;99.90
36372;DHT22;22398;51.346;12.372;2023-04-09T00:36:59;3.00;99.90
36372;DHT22;22398;51.346;12.372;2023-04-09T00:42:02;3.00;99.90
36372;DHT22;22398;51.346;12.372;2023-04-09T00:47:06;2.90;99.90
36372;DHT22;22398;51.346;12.372;2023-04-09T00:52:10;2.80;99.90
36372;DHT22;22398;51.346;12.372;2023-04-09T00:57:14;2.80;99.90
36372;DHT22;22398;51.346;12.372;2023-04-09T01:02:18;2.80;99.90
36372;DHT22;22398;51.346;12.372;2023-04-09T01:07:30;2.80;99.90
36372;DHT22;22398;51.346;12.372;2023-04-09T01:12:42;2.70;99.90
36372;DHT22;22398;51.346;12.372;2023-04-09T01:17:52;2.70;99.90
36372;DHT22;22398;51.346;12.372;2023-04-09T01:23:05;2.70;99.90
36372;DHT22;22398;51.346;12.372;2023-04-09T01:28:14;2.60;99.90
36372;DHT22;22398;51.346;12.372;2023-04-09T01:33:19;2.50;99.90
36372;DHT22;22398;51.346;12.372;2023-04-09T01:38:24;2.40;99.90
36372;DHT22;22398;51.346;12.372;2023-04-09T01:43:30;2.40;99.90
36372;DHT22;22398;51.346;12.372;2023-04-09T01:48:34;2.30;99.90
36372;DHT22;22398;51.346;12.372;2023-04-09T01:53:38;2.30;99.90
36372;DHT22;22398;51.346;12.372;2023-04-09T01:58:43;2.30;99.90
36372;DHT22;22398;51.346;12.372;2023-04-09T02:03:51;2.20;99.90
36372;DHT22;22398;51.346;12.372;2023-04-09T02:08:58;2.10;99.90
36372;DHT22;22398;51.346;12.372;2023-04-09T02:14:04;2.10;99.90
36372;DHT22;22398;51.346;12.372;2023-04-09T02:19:09;2.10;99.90
36372;DHT22;22398;51.346;12.372;2023-04-09T02:24:12;2.10;99.90
36372;DHT22;22398;51.346;12.372;2023-04-09T02:29:17;2.10;99.90
36372;DHT22;22398;51.346;12.372;2023-04-09T02:34:20;2.00;99.90
36372;DHT22;22398;51.346;12.372;2023-04-09T02:39:24;2.10;99.90
36372;DHT22;22398;51.346;12.372;2023-04-09T02:44:29;2.10;99.90
36372;DHT22;22398;51.346;12.372;2023-04-09T02:49:32;2.00;99.90
36372;DHT22;22398;51.346;12.372;2023-04-09T02:54:36;2.00;99.90
36372;DHT22;22398;51.346;12.372;2023-04-09T02:59:41;1.90;99.90
36372;DHT22;22398;51.346;12.372;2023-04-09T03:04:44;1.90;99.90
36372;DHT22;22398;51.346;12.372;2023-04-09T03:09:47;1.90;99.90
36372;DHT22;22398;51.346;12.372;2023-04-09T03:14:52;1.80;99.90
36372;DHT22;22398;51.346;12.372;2023-04-09T03:19:57;1.80;99.90
36372;DHT22;22398;51.346;12.372;2023-04-09T03:25:08;1.70;99.90
36372;DHT22;22398;51.346;12.372;2023-04-09T03:30:14;1.70;99.90
36372;DHT22;22398;51.346;12.372;2023-04-09T03:35:19;1.70;99.90
36372;DHT22;22398;51.346;12.372;2023-04-09T03:40:25;1.70;99.90
36372;DHT22;22398;51.346;12.372;2023-04-09T03:45:30;1.60;99.90
36372;DHT22;22398;51.346;12.372;2023-04-09T03:50:47;1.70;99.90
36372;DHT22;22398;51.346;12.372;2023-04-09T03:55:58;1.70;99.90
36372;DHT22;22398;51.346;12.372;2023-04-09T04:01:04;1.70;99.90
36372;DHT22;22398;51.346;12.372;2023-04-09T04:06:24;1.60;99.90
36372;DHT22;22398;51.346;12.372;2023-04-09T04:11:51;1.70;99.90
36372;DHT22;22398;51.346;12.372;2023-04-09T04:16:58;1.60;99.90
36372;DHT22;22398;51.346;12.372;2023-04-09T04:22:04;1.60;99.90
36372;DHT22;22398;51.346;12.372;2023-04-09T04:27:13;1.50;99.90
36372;DHT22;22398;51.346;12.372;2023-04-09T04:32:18;1.50;99.90
36372;DHT22;22398;51.346;12.372;2023-04-09T04:37:23;1.60;99.90
36372;DHT22;22398;51.346;12.372;2023-04-09T04:42:30;1.70;99.90
36372;DHT22;22398;51.346;12.372;2023-04-09T04:47:39;1.70;99.90
36372;DHT22;22398;51.346;12.372;2023-04-09T04:52:43;1.80;99.90
36372;DHT22;22398;51.346;12.372;2023-04-09T04:57:46;1.90;99.90
36372;DHT22;22398;51.346;12.372;2023-04-09T05:02:55;2.00;99.90
36372;DHT22;22398;51.346;12.372;2023-04-09T05:08:15;2.20;99.90
36372;DHT22;22398;51.346;12.372;2023-04-09T05:13:22;2.40;99.90
36372;DHT22;22398;51.346;12.372;2023-04-09T05:18:28;2.40;99.90
36372;DHT22;22398;51.346;12.372;2023-04-09T05:23:32;2.40;99.90
36372;DHT22;22398;51.346;12.372;2023-04-09T05:28:36;2.60;99.90
36372;DHT22;22398;51.346;12.372;2023-04-09T05:33:49;3.20;99.90
36372;DHT22;22398;51.346;12.372;2023-04-09T05:38:58;2.80;99.90
36372;DHT22;22398;51.346;12.372;2023-04-09T05:44:04;3.00;99.90
36372;DHT22;22398;51.346;12.372;2023-04-09T05:49:10;3.10;99.90
36372;DHT22;22398;51.346;12.372;2023-04-09T05:54:16;3.30;99.90
36372;DHT22;22398;51.346;12.372;2023-04-09T05:59:19;3.60;99.90
36372;DHT22;22398;51.346;12.372;2023-04-09T06:04:24;3.80;99.90
36372;DHT22;22398;51.346;12.372;2023-04-09T06:09:27;4.00;99.90
36372;DHT22;22398;51.346;12.372;2023-04-09T06:14:31;4.20;99.90
36372;DHT22;22398;51.346;12.372;2023-04-09T06:19:36;4.40;99.90
36372;DHT22;22398;51.346;12.372;2023-04-09T06:24:40;4.60;99.90
36372;DHT22;22398;51.346;12.372;2023-04-09T06:29:43;4.80;99.90
36372;DHT22;22398;51.346;12.372;2023-04-09T06:34:48;5.00;99.90
36372;DHT22;22398;51.346;12.372;2023-04-09T06:39:51;5.10;99.90
36372;DHT22;22398;51.346;12.372;2023-04-09T06:45:02;5.30;99.90
36372;DHT22;22398;51.346;12.372;2023-04-09T06:50:11;5.50;99.90
36372;DHT22;22398;51.346;12.372;2023-04-09T06:55:14;5.80;99.90
36372;DHT22;22398;51.346;12.372;2023-04-09T07:00:18;6.00;99.90
36372;DHT22;22398;51.346;12.372;2023-04-09T07:05:22;6.20;99.90
36372;DHT22;22398;51.346;12.372;2023-04-09T07:10:26;6.40;99.90
36372;DHT22;22398;51.346;12.372;2023-04-09T07:15:29;6.50;99.90
36372;DHT22;22398;51.346;12.372;2023-04-09T07:20:34;6.70;99.90
36372;DHT22;22398;51.346;12.372;2023-04-09T07:25:37;6.90;99.90
36372;DHT22;22398;51.346;12.372;2023-04-09T07:30:41;7.10;99.90
36372;DHT22;22398;51.346;12.372;2023-04-09T07:35:46;7.30;99.90
36372;DHT22;22398;51.346;12.372;2023-04-09T07:40:49;7.50;99.90
36372;DHT22;22398;51.346;12.372;2023-04-09T07:45:53;7.70;99.90
36372;DHT22;22398;51.346;12.372;2023-04-09T07:50:58;8.00;99.90
36372;DHT22;22398;51.346;12.372;2023-04-09T07:56:02;8.20;99.90
36372;DHT22;22398;51.346;12.372;2023-04-09T08:01:05;8.40;99.90
36372;DHT22;22398;51.346;12.372;2023-04-09T08:06:10;8.50;99.90
36372;DHT22;22398;51.346;12.372;2023-04-09T08:11:14;8.50;99.90
36372;DHT22;22398;51.346;12.372;2023-04-09T08:16:19;8.90;99.90
36372;DHT22;22398;51.346;12.372;2023-04-09T08:21:26;9.10;99.90
36372;DHT22;22398;51.346;12.372;2023-04-09T08:26:30;9.30;99.90
36372;DHT22;22398;51.346;12.372;2023-04-09T08:31:34;9.60;99.90
36372;DHT22;22398;51.346;12.372;2023-04-09T08:36:40;9.90;99.90
36372;DHT22;22398;51.346;12.372;2023-04-09T08:41:44;9.90;99.90
36372;DHT22;22398;51.346;12.372;2023-04-09T08:46:48;10.10;99.90
36372;DHT22;22398;51.346;12.372;2023-04-09T08:51:53;10.40;99.40
36372;DHT22;22398;51.346;12.372;2023-04-09T08:56:57;10.60;98.70
36372;DHT22;22398;51.346;12.372;2023-04-09T09:02:08;10.80;98.20
36372;DHT22;22398;51.346;12.372;2023-04-09T09:07:15;10.90;97.20
36372;DHT22;22398;51.346;12.372;2023-04-09T09:12:34;11.10;96.30
36372;DHT22;22398;51.346;12.372;2023-04-09T09:17:53;11.20;95.30
36372;DHT22;22398;51.346;12.372;2023-04-09T09:22:59;11.30;94.60
36372;DHT22;22398;51.346;12.372;2023-04-09T09:28:06;11.50;93.90
36372;DHT22;22398;51.346;12.372;2023-04-09T09:33:10;11.60;92.80
36372;DHT22;22398;51.346;12.372;2023-04-09T09:38:15;11.40;91.60
36372;DHT22;22398;51.346;12.372;2023-04-09T09:43:19;11.50;91.20
36372;DHT22;22398;51.346;12.372;2023-04-09T09:48:22;11.80;90.70
36372;DHT22;22398;51.346;12.372;2023-04-09T09:53:31;12.00;90.10
36372;DHT22;22398;51.346;12.372;2023-04-09T09:58:39;11.70;87.90
36372;DHT22;22398;51.346;12.372;2023-04-09T10:03:44;11.70;87.20
36372;DHT22;22398;51.346;12.372;2023-04-09T10:08:49;11.90;86.90
36372;DHT22;22398;51.346;12.372;2023-04-09T10:13:56;12.00;85.30
36372;DHT22;22398;51.346;12.372;2023-04-09T10:19:00;12.10;84.80
36372;DHT22;22398;51.346;12.372;2023-04-09T10:24:06;12.60;84.30
36372;DHT22;22398;51.346;12.372;2023-04-09T10:29:11;12.40;82.40
36372;DHT22;22398;51.346;12.372;2023-04-09T10:34:16;12.60;82.20
36372;DHT22;22398;51.346;12.372;2023-04-09T10:39:25;12.90;81.10
36372;DHT22;22398;51.346;12.372;2023-04-09T10:44:28;13.10;80.30
36372;DHT22;22398;51.346;12.372;2023-04-09T10:49:35;13.30;79.10
36372;DHT22;22398;51.346;12.372;2023-04-09T10:54:44;13.40;78.40
36372;DHT22;22398;51.346;12.372;2023-04-09T10:59:50;13.50;78.10
36372;DHT22;22398;51.346;12.372;2023-04-09T11:05:02;13.40;76.70
36372;DHT22;22398;51.346;12.372;2023-04-09T11:10:11;13.50;76.20
36372;DHT22;22398;51.346;12.372;2023-04-09T11:15:15;13.70;75.40
36372;DHT22;22398;51.346;12.372;2023-04-09T11:20:20;13.70;74.10
36372;DHT22;22398;51.346;12.372;2023-04-09T11:25:26;13.60;73.20
36372;DHT22;22398;51.346;12.372;2023-04-09T11:30:30;13.50;72.50
36372;DHT22;22398;51.346;12.372;2023-04-09T11:35:35;13.60;72.00
36372;DHT22;22398;51.346;12.372;2023-04-09T11:40:42;13.50;71.10
36372;DHT22;22398;51.346;12.372;2023-04-09T11:45:49;13.40;70.40
36372;DHT22;22398;51.346;12.372;2023-04-09T11:50:53;13.50;70.00
36372;DHT22;22398;51.346;12.372;2023-04-09T11:55:58;13.70;69.60
36372;DHT22;22398;51.346;12.372;2023-04-09T12:01:02;14.00;69.60
36372;DHT22;22398;51.346;12.372;2023-04-09T12:06:06;14.30;68.90
36372;DHT22;22398;51.346;12.372;2023-04-09T12:11:13;14.50;68.60
36372;DHT22;22398;51.346;12.372;2023-04-09T12:16:18;14.60;67.90
36372;DHT22;22398;51.346;12.372;2023-04-09T12:21:23;14.60;67.20
36372;DHT22;22398;51.346;12.372;2023-04-09T12:26:28;14.70;67.40
36372;DHT22;22398;51.346;12.372;2023-04-09T12:31:31;14.80;66.70
36372;DHT22;22398;51.346;12.372;2023-04-09T12:36:35;14.80;66.80
36372;DHT22;22398;51.346;12.372;2023-04-09T12:41:39;14.80;66.80
36372;DHT22;22398;51.346;12.372;2023-04-09T12:46:43;14.70;67.10
36372;DHT22;22398;51.346;12.372;2023-04-09T12:51:47;14.80;67.20
36372;DHT22;22398;51.346;12.372;2023-04-09T12:56:52;14.80;67.20
36372;DHT22;22398;51.346;12.372;2023-04-09T13:01:56;14.90;67.10
36372;DHT22;22398;51.346;12.372;2023-04-09T13:06:59;15.10;66.90
36372;DHT22;22398;51.346;12.372;2023-04-09T13:12:05;14.80;66.20
36372;DHT22;22398;51.346;12.372;2023-04-09T13:17:08;14.70;66.10
36372;DHT22;22398;51.346;12.372;2023-04-09T13:22:12;14.70;65.80
36372;DHT22;22398;51.346;12.372;2023-04-09T13:27:17;14.80;65.90
36372;DHT22;22398;51.346;12.372;2023-04-09T13:32:21;14.90;65.70
36372;DHT22;22398;51.346;12.372;2023-04-09T13:37:25;14.90;65.00
36372;DHT22;22398;51.346;12.372;2023-04-09T13:42:30;14.60;65.00
36372;DHT22;22398;51.346;12.372;2023-04-09T13:47:34;14.90;64.90
36372;DHT22;22398;51.346;12.372;2023-04-09T13:52:37;15.10;64.40
36372;DHT22;22398;51.346;12.372;2023-04-09T13:57:42;15.00;64.10
36372;DHT22;22398;51.346;12.372;2023-04-09T14:02:46;14.90;64.30
36372;DHT22;22398;51.346;12.372;2023-04-09T14:07:49;14.90;64.40
36372;DHT22;22398;51.346;12.372;2023-04-09T14:12:54;14.90;64.40
36372;DHT22;22398;51.346;12.372;2023-04-09T14:17:58;15.00;64.10
36372;DHT22;22398;51.346;12.372;2023-04-09T14:23:01;14.90;63.60
36372;DHT22;22398;51.346;12.372;2023-04-09T14:28:06;14.90;63.50
36372;DHT22;22398;51.346;12.372;2023-04-09T14:33:09;14.70;63.80
36372;DHT22;22398;51.346;12.372;2023-04-09T14:38:13;14.60;64.00
36372;DHT22;22398;51.346;12.372;2023-04-09T14:43:19;14.40;64.00
36372;DHT22;22398;51.346;12.372;2023-04-09T14:48:22;14.30;63.90
36372;DHT22;22398;51.346;12.372;2023-04-09T14:53:25;14.30;64.20
36372;DHT22;22398;51.346;12.372;2023-04-09T14:58:30;14.40;64.30
36372;DHT22;22398;51.346;12.372;2023-04-09T15:03:34;14.40;64.30
36372;DHT22;22398;51.346;12.372;2023-04-09T15:08:37;14.40;64.10
36372;DHT22;22398;51.346;12.372;2023-04-09T15:13:42;14.40;63.90
36372;DHT22;22398;51.346;12.372;2023-04-09T15:18:46;14.50;63.90
36372;DHT22;22398;51.346;12.372;2023-04-09T15:23:52;14.50;63.70
36372;DHT22;22398;51.346;12.372;2023-04-09T15:29:00;14.50;63.50
36372;DHT22;22398;51.346;12.372;2023-04-09T15:34:04;14.40;63.20
36372;DHT22;22398;51.346;12.372;2023-04-09T15:39:08;14.40;62.90
36372;DHT22;22398;51.346;12.372;2023-04-09T15:44:13;14.30;62.60
36372;DHT22;22398;51.346;12.372;2023-04-09T15:49:17;14.30;62.50
36372;DHT22;22398;51.346;12.372;2023-04-09T15:54:20;14.30;62.50
36372;DHT22;22398;51.346;12.372;2023-04-09T15:59:25;14.20;62.10
36372;DHT22;22398;51.346;12.372;2023-04-09T16:04:28;14.20;61.80
36372;DHT22;22398;51.346;12.372;2023-04-09T16:09:31;14.30;61.70
36372;DHT22;22398;51.346;12.372;2023-04-09T16:14:36;14.40;61.10
36372;DHT22;22398;51.346;12.372;2023-04-09T16:19:41;14.80;60.90
36372;DHT22;22398;51.346;12.372;2023-04-09T16:24:44;15.00;59.80
36372;DHT22;22398;51.346;12.372;2023-04-09T16:29:49;14.90;59.50
36372;DHT22;22398;51.346;12.372;2023-04-09T16:34:53;15.30;59.00
36372;DHT22;22398;51.346;12.372;2023-04-09T16:39:57;15.30;57.60
36372;DHT22;22398;51.346;12.372;2023-04-09T16:45:03;15.20;57.50
36372;DHT22;22398;51.346;12.372;2023-04-09T16:50:07;15.20;57.50
36372;DHT22;22398;51.346;12.372;2023-04-09T16:55:12;15.00;57.40
36372;DHT22;22398;51.346;12.372;2023-04-09T17:00:17;14.70;57.90
36372;DHT22;22398;51.346;12.372;2023-04-09T17:05:22;14.50;58.10
36372;DHT22;22398;51.346;12.372;2023-04-09T17:10:25;14.20;58.40
36372;DHT22;22398;51.346;12.372;2023-04-09T17:15:30;14.00;59.20
36372;DHT22;22398;51.346;12.372;2023-04-09T17:20:33;14.10;59.10
36372;DHT22;22398;51.346;12.372;2023-04-09T17:25:37;14.20;59.10
36372;DHT22;22398;51.346;12.372;2023-04-09T17:30:42;14.10;59.30
36372;DHT22;22398;51.346;12.372;2023-04-09T17:35:46;13.90;59.70
36372;DHT22;22398;51.346;12.372;2023-04-09T17:40:49;13.60;60.20
36372;DHT22;22398;51.346;12.372;2023-04-09T17:45:54;13.30;60.80
36372;DHT22;22398;51.346;12.372;2023-04-09T17:50:57;13.00;61.50
36372;DHT22;22398;51.346;12.372;2023-04-09T17:56:01;12.70;62.00
36372;DHT22;22398;51.346;12.372;2023-04-09T18:01:07;12.50;62.60
36372;DHT22;22398;51.346;12.372;2023-04-09T18:06:10;12.20;63.30
36372;DHT22;22398;51.346;12.372;2023-04-09T18:11:15;11.90;64.00
36372;DHT22;22398;51.346;12.372;2023-04-09T18:16:20;11.70;64.60
36372;DHT22;22398;51.346;12.372;2023-04-09T18:21:24;11.60;65.20
36372;DHT22;22398;51.346;12.372;2023-04-09T18:26:28;11.40;65.70
36372;DHT22;22398;51.346;12.372;2023-04-09T18:31:32;11.20;66.30
36372;DHT22;22398;51.346;12.372;2023-04-09T18:36:36;11.00;66.80
36372;DHT22;22398;51.346;12.372;2023-04-09T18:41:39;10.90;67.30
36372;DHT22;22398;51.346;12.372;2023-04-09T18:46:43;10.70;67.90
36372;DHT22;22398;51.346;12.372;2023-04-09T18:51:47;10.60;68.30
36372;DHT22;22398;51.346;12.372;2023-04-09T18:56:50;10.50;69.00
36372;DHT22;22398;51.346;12.372;2023-04-09T19:01:55;10.40;69.40
36372;DHT22;22398;51.346;12.372;2023-04-09T19:06:59;10.30;69.90
36372;DHT22;22398;51.346;12.372;2023-04-09T19:12:03;10.30;70.30
36372;DHT22;22398;51.346;12.372;2023-04-09T19:17:08;10.20;70.70
36372;DHT22;22398;51.346;12.372;2023-04-09T19:22:12;10.00;71.10
36372;DHT22;22398;51.346;12.372;2023-04-09T19:27:15;9.90;71.60
36372;DHT22;22398;51.346;12.372;2023-04-09T19:32:21;9.80;72.20
36372;DHT22;22398;51.346;12.372;2023-04-09T19:37:25;9.80;72.60
36372;DHT22;22398;51.346;12.372;2023-04-09T19:42:30;9.80;73.00
36372;DHT22;22398;51.346;12.372;2023-04-09T19:47:35;9.70;73.40
36372;DHT22;22398;51.346;12.372;2023-04-09T19:52:39;9.50;73.80
36372;DHT22;22398;51.346;12.372;2023-04-09T19:57:43;9.50;74.40
36372;DHT22;22398;51.346;12.372;2023-04-09T20:02:49;9.40;74.70
36372;DHT22;22398;51.346;12.372;2023-04-09T20:07:52;9.20;75.10
36372;DHT22;22398;51.346;12.372;2023-04-09T20:12:56;9.10;75.60
36372;DHT22;22398;51.346;12.372;2023-04-09T20:18:00;8.90;76.00
36372;DHT22;22398;51.346;12.372;2023-04-09T20:23:04;8.70;76.50
36372;DHT22;22398;51.346;12.372;2023-04-09T20:28:07;8.60;77.20
36372;DHT22;22398;51.346;12.372;2023-04-09T20:33:12;8.50;77.80
36372;DHT22;22398;51.346;12.372;2023-04-09T20:38:15;8.40;78.40
36372;DHT22;22398;51.346;12.372;2023-04-09T20:43:21;8.20;78.90
36372;DHT22;22398;51.346;12.372;2023-04-09T20:48:28;8.10;79.60
36372;DHT22;22398;51.346;12.372;2023-04-09T20:53:32;8.00;80.30
36372;DHT22;22398;51.346;12.372;2023-04-09T20:58:36;7.90;80.90
36372;DHT22;22398;51.346;12.372;2023-04-09T21:03:41;7.80;81.70
36372;DHT22;22398;51.346;12.372;2023-04-09T21:08:45;7.70;82.70
36372;DHT22;22398;51.346;12.372;2023-04-09T21:13:49;7.70;83.20
36372;DHT22;22398;51.346;12.372;2023-04-09T21:18:57;7.60;84.10
36372;DHT22;22398;51.346;12.372;2023-04-09T21:24:08;7.60;85.00
36372;DHT22;22398;51.346;12.372;2023-04-09T21:29:11;7.50;86.10
36372;DHT22;22398;51.346;12.372;2023-04-09T21:34:16;7.50;86.90
36372;DHT22;22398;51.346;12.372;2023-04-09T21:39:20;7.50;87.20
36372;DHT22;22398;51.346;12.372;2023-04-09T21:44:23;7.30;88.00
36372;DHT22;22398;51.346;12.372;2023-04-09T21:49:28;7.20;88.80
36372;DHT22;22398;51.346;12.372;2023-04-09T21:54:32;7.10;89.70
36372;DHT22;22398;51.346;12.372;2023-04-09T21:59:35;7.00;90.10
36372;DHT22;22398;51.346;12.372;2023-04-09T22:04:40;7.00;90.70
36372;DHT22;22398;51.346;12.372;2023-04-09T22:09:44;7.00;91.00
36372;DHT22;22398;51.346;12.372;2023-04-09T22:14:48;7.00;91.50
36372;DHT22;22398;51.346;12.372;2023-04-09T22:19:54;7.00;91.70
36372;DHT22;22398;51.346;12.372;2023-04-09T22:24:57;7.00;91.90
36372;DHT22;22398;51.346;12.372;2023-04-09T22:30:00;6.90;92.20
36372;DHT22;22398;51.346;12.372;2023-04-09T22:35:05;6.80;92.50
36372;DHT22;22398;51.346;12.372;2023-04-09T22:40:09;7.00;92.90
36372;DHT22;22398;51.346;12.372;2023-04-09T22:45:15;7.00;92.90
36372;DHT22;22398;51.346;12.372;2023-04-09T22:50:20;7.00;92.90
36372;DHT22;22398;51.346;12.372;2023-04-09T22:55:23;7.00;92.90
36372;DHT22;22398;51.346;12.372;2023-04-09T23:00:27;6.90;93.00
36372;DHT22;22398;51.346;12.372;2023-04-09T23:05:31;6.90;93.40
36372;DHT22;22398;51.346;12.372;2023-04-09T23:10:35;6.90;93.60
36372;DHT22;22398;51.346;12.372;2023-04-09T23:15:38;6.70;93.70
36372;DHT22;22398;51.346;12.372;2023-04-09T23:20:43;6.50;93.90
36372;DHT22;22398;51.346;12.372;2023-04-09T23:25:46;6.50;94.50
36372;DHT22;22398;51.346;12.372;2023-04-09T23:30:50;6.30;94.50
36372;DHT22;22398;51.346;12.372;2023-04-09T23:35:55;6.10;94.70
36372;DHT22;22398;51.346;12.372;2023-04-09T23:40:58;6.00;95.20
36372;DHT22;22398;51.346;12.372;2023-04-09T23:46:01;5.90;95.40
36372;DHT22;22398;51.346;12.372;2023-04-09T23:51:06;5.70;95.70
36372;DHT22;22398;51.346;12.372;2023-04-09T23:56:10;5.80;96.20
